Time;durP1;ratioP1;P1;durP2;ratioP2;P2;SDS_P1;SDS_P2;PMS_P1;PMS_P2;Temp;Humidity;BMP_temperature;BMP_pressure;BME280_temperature;BME280_humidity;BME280_pressure;Samples;Min_cycle;Max_cycle;Signal;HPM_P1;HPM_P2
2021/04/08 00:01:23;;;;;;;19.70;13.20;;;;;;;1.55;69.53;99755.80;115641;1200;103766;-83
2021/04/08 00:03:50;;;;;;;19.10;14.80;;;;;;;1.53;69.33;99754.91;115871;1198;103028;-83
2021/04/08 00:06:17;;;;;;;16.65;13.50;;;;;;;1.57;69.72;99759.27;115720;1198;102991;-82
2021/04/08 00:08:44;;;;;;;22.33;14.27;;;;;;;1.52;69.25;99746.17;115728;1198;101842;-82
2021/04/08 00:11:10;;;;;;;14.73;13.17;;;;;;;1.51;69.18;99754.91;115365;1199;102992;-81
2021/04/08 00:13:37;;;;;;;19.77;14.43;;;;;;;1.51;69.06;99749.66;115350;1198;103005;-83
2021/04/08 00:16:05;;;;;;;19.90;12.27;;;;;;;1.50;69.67;99751.39;115499;1199;103001;-82
2021/04/08 00:18:32;;;;;;;14.35;11.73;;;;;;;1.50;69.45;99754.02;115866;1198;102500;-84
2021/04/08 00:20:59;;;;;;;16.68;12.33;;;;;;;1.50;69.40;99751.39;115659;1200;103021;-83
2021/04/08 00:23:26;;;;;;;15.67;11.90;;;;;;;1.48;69.17;99750.53;116017;1198;102062;-82
2021/04/08 00:25:52;;;;;;;14.57;10.87;;;;;;;1.46;69.20;99757.52;115809;1199;101953;-83
2021/04/08 00:28:19;;;;;;;17.05;10.70;;;;;;;1.45;69.85;99754.90;115856;1198;103007;-83
2021/04/08 00:30:46;;;;;;;16.45;12.33;;;;;;;1.43;69.30;99760.15;115590;1199;102924;-82
2021/04/08 00:33:13;;;;;;;13.60;10.70;;;;;;;1.39;69.20;99763.65;115443;1200;103200;-83
2021/04/08 00:35:41;;;;;;;18.30;13.03;;;;;;;1.41;69.56;99759.26;115715;1199;103210;-82
2021/04/08 00:38:09;;;;;;;15.20;13.15;;;;;;;1.39;69.75;99768.89;115733;1199;103139;-81
2021/04/08 00:40:36;;;;;;;21.13;13.63;;;;;;;1.43;69.24;99762.77;115721;1199;103110;-82
2021/04/08 00:43:03;;;;;;;19.10;13.07;;;;;;;1.49;69.25;99762.78;115758;1199;103103;-83
2021/04/08 00:45:31;;;;;;;16.10;12.10;;;;;;;1.56;69.04;99768.02;115770;1199;103168;-81
2021/04/08 00:48:12;;;;;;;13.90;12.50;;;;;;;1.57;69.29;99769.77;115764;1200;103559;-82
2021/04/08 00:51:04;;;;;;;;;;;;;;;;;;;;;
2021/04/08 00:53:46;;;;;;;18.25;14.00;;;;;;;1.57;68.61;99768.02;115568;1203;103264;-82
2021/04/08 00:56:13;;;;;;;16.50;13.53;;;;;;;1.55;68.70;99767.16;115512;1202;103014;-82
2021/04/08 00:58:42;;;;;;;18.23;14.35;;;;;;;1.57;69.03;99773.27;115675;1202;102902;-82
2021/04/08 01:01:11;;;;;;;20.63;17.97;;;;;;;1.58;69.01;99772.39;115523;1201;103057;-82
2021/04/08 01:03:37;;;;;;;23.23;15.10;;;;;;;1.60;69.38;99775.91;115726;1202;103252;-82
2021/04/08 01:06:05;;;;;;;22.05;15.75;;;;;;;1.64;69.29;99775.03;115598;1202;102896;-80
2021/04/08 01:08:32;;;;;;;19.00;13.60;;;;;;;1.62;68.86;99771.52;115567;1202;103062;-82
2021/04/08 01:10:59;;;;;;;17.20;15.40;;;;;;;1.68;68.73;99783.78;115679;1201;101946;-81
2021/04/08 01:13:27;;;;;;;17.40;14.27;;;;;;;1.67;68.92;99775.02;115783;1201;103325;-81
2021/04/08 01:15:54;;;;;;;21.87;16.00;;;;;;;1.74;68.74;99786.39;115642;1201;103165;-83
2021/04/08 01:18:43;;;;;;;23.15;15.20;;;;;;;1.82;68.13;99778.52;115725;1202;103178;-82
2021/04/08 01:21:15;;;;;;;21.57;14.87;;;;;;;1.83;68.24;99778.51;115801;1202;103239;-81
2021/04/08 01:24:06;;;;;;;17.63;14.33;;;;;;;1.91;68.74;99780.27;115337;1202;103182;-82
2021/04/08 01:26:41;;;;;;;17.63;15.03;;;;;;;1.92;68.57;99784.63;115397;1202;104229;-82
2021/04/08 01:29:39;;;;;;;18.20;14.85;;;;;;;1.94;68.25;99772.38;115758;1201;103127;-82
2021/04/08 01:32:07;;;;;;;16.03;14.03;;;;;;;1.93;67.67;99779.39;115558;1199;103040;-82
2021/04/08 01:34:35;;;;;;;21.13;15.13;;;;;;;1.96;67.97;99778.48;115825;1198;103036;-83
2021/04/08 01:37:22;;;;;;;20.88;14.75;;;;;;;2.00;68.01;99777.64;115722;1200;103021;-82
2021/04/08 01:39:49;;;;;;;17.13;15.33;;;;;;;1.97;68.13;99774.99;115618;1200;103034;-83
2021/04/08 01:42:16;;;;;;;21.63;16.70;;;;;;;1.98;68.27;99774.98;115851;1199;103018;-82
2021/04/08 01:44:45;;;;;;;19.57;14.80;;;;;;;1.98;67.93;99772.36;115906;1199;104431;-82
2021/04/08 01:47:13;;;;;;;14.57;13.13;;;;;;;2.02;67.59;99773.23;115688;1199;103066;-83
2021/04/08 01:49:43;;;;;;;20.83;17.07;;;;;;;1.98;67.78;99771.50;115812;1199;102364;-81
2021/04/08 01:52:16;;;;;;;16.47;14.83;;;;;;;2.04;67.94;99775.86;115707;1199;103271;-82
2021/04/08 01:54:45;;;;;;;21.68;18.05;;;;;;;2.04;67.64;99770.61;115760;1200;103200;-81
2021/04/08 01:57:27;;;;;;;22.93;17.70;;;;;;;2.08;67.77;99783.75;115657;1199;102269;-81
2021/04/08 01:59:54;;;;;;;18.95;15.95;;;;;;;2.10;67.82;99770.61;115703;1199;102998;-82
2021/04/08 02:02:21;;;;;;;21.50;16.70;;;;;;;2.08;67.65;99778.49;115903;1198;103121;-82
2021/04/08 02:05:07;;;;;;;20.38;18.23;;;;;;;2.11;66.89;99783.73;115756;1200;103271;-83
2021/04/08 02:07:35;;;;;;;25.15;16.80;;;;;;;2.06;67.54;99785.48;115605;1200;103153;-82
2021/04/08 02:10:02;;;;;;;20.13;16.77;;;;;;;2.10;67.69;99787.23;115749;1199;103258;-81
2021/04/08 02:12:29;;;;;;;20.83;16.73;;;;;;;2.12;67.70;99780.23;115728;1198;103195;-83
2021/04/08 02:15:11;;;;;;;22.95;17.80;;;;;;;2.05;67.27;99782.87;115524;1202;102692;-81
2021/04/08 02:17:38;;;;;;;21.93;18.23;;;;;;;2.08;67.98;99786.38;115687;1200;103037;-82
2021/04/08 02:20:10;;;;;;;21.20;14.80;;;;;;;2.04;67.66;99784.63;115722;1198;103108;-82
2021/04/08 02:22:48;;;;;;;15.97;12.40;;;;;;;2.04;67.42;99786.36;115792;1199;102298;-81
2021/04/08 02:25:16;;;;;;;15.57;13.90;;;;;;;2.00;66.79;99781.13;115823;1199;101975;-81
2021/04/08 02:27:44;;;;;;;17.10;13.55;;;;;;;2.00;67.66;99780.27;115642;1198;103012;-81
2021/04/08 02:30:14;;;;;;;15.33;11.40;;;;;;;2.02;67.82;99782.88;115689;1200;103066;-82
2021/04/08 02:32:42;;;;;;;19.20;13.10;;;;;;;1.99;68.10;99778.50;115687;1200;103025;-82
2021/04/08 02:35:11;;;;;;;19.93;14.17;;;;;;;2.03;67.18;99788.13;115433;1199;102992;-82
2021/04/08 02:37:38;;;;;;;16.17;12.70;;;;;;;1.97;67.79;99786.39;115408;1199;103069;-84
2021/04/08 02:40:08;;;;;;;19.37;14.70;;;;;;;1.98;67.28;99789.88;115652;1199;103187;-81
2021/04/08 02:42:35;;;;;;;19.30;12.53;;;;;;;2.03;68.12;99787.23;115713;1199;102999;-83
2021/04/08 02:45:03;;;;;;;12.80;10.75;;;;;;;2.03;68.14;99792.48;115790;1198;103082;-83
2021/04/08 02:47:30;;;;;;;15.20;13.20;;;;;;;1.98;67.99;99787.25;115425;1199;103052;-82
2021/04/08 02:49:56;;;;;;;16.13;12.33;;;;;;;1.94;68.27;99796.02;115702;1199;103053;-81
2021/04/08 02:52:34;;;;;;;17.35;13.80;;;;;;;1.98;68.71;99801.25;115849;1199;101855;-82
2021/04/08 02:55:19;;;;;;;20.75;13.93;;;;;;;1.98;68.29;99800.38;115678;1199;103059;-81
2021/04/08 02:58:04;;;;;;;15.07;12.80;;;;;;;1.97;68.16;99791.64;115425;1199;103283;-81
2021/04/08 03:00:52;;;;;;;18.45;12.18;;;;;;;2.03;68.40;99790.75;115727;1202;103184;-83
2021/04/08 03:03:23;;;;;;;16.58;14.53;;;;;;;2.05;68.40;99794.23;115743;1202;103281;-81
2021/04/08 03:05:50;;;;;;;15.65;14.05;;;;;;;2.06;68.63;99789.88;115491;1202;103062;-83
2021/04/08 03:08:19;;;;;;;12.40;10.55;;;;;;;2.01;68.05;99789.87;115732;1203;101867;-82
2021/04/08 03:10:46;;;;;;;26.77;14.03;;;;;;;2.02;67.65;99796.02;115608;1200;103007;-81
2021/04/08 03:13:15;;;;;;;20.20;13.37;;;;;;;1.97;68.72;99793.38;115452;1200;103191;-82
2021/04/08 03:15:43;;;;;;;15.53;12.77;;;;;;;1.99;68.50;99796.89;115768;1201;103347;-83
2021/04/08 03:18:17;;;;;;;26.30;14.87;;;;;;;1.96;68.02;99803.02;115587;1202;103212;-82
2021/04/08 03:20:50;;;;;;;19.07;15.40;;;;;;;1.99;68.38;99795.13;115513;1200;102037;-83
2021/04/08 03:23:18;;;;;;;20.40;15.75;;;;;;;1.96;68.54;99799.50;115674;1201;103033;-81
2021/04/08 03:25:48;;;;;;;17.37;13.90;;;;;;;1.91;68.43;99798.66;115693;1202;103287;-81
2021/04/08 03:28:18;;;;;;;17.28;13.28;;;;;;;1.91;68.66;99804.77;115687;1202;103743;-81
2021/04/08 03:30:46;;;;;;;14.93;11.80;;;;;;;1.82;68.63;99799.52;115717;1200;103149;-81
2021/04/08 03:33:15;;;;;;;19.53;13.10;;;;;;;1.77;69.16;99804.79;115622;1201;103111;-81
2021/04/08 03:35:45;;;;;;;19.80;14.70;;;;;;;1.82;68.75;99807.39;115697;1201;102150;-81
2021/04/08 03:38:15;;;;;;;16.73;12.40;;;;;;;1.85;69.03;99810.02;115665;1198;103075;-82
2021/04/08 03:40:42;;;;;;;23.02;14.13;;;;;;;1.88;69.11;99812.66;115584;1199;103082;-81
2021/04/08 03:43:11;;;;;;;17.70;14.20;;;;;;;1.90;68.92;99812.66;115891;1199;103085;-81
2021/04/08 03:45:38;;;;;;;16.90;15.20;;;;;;;1.91;68.95;99806.53;115815;1199;105063;-83
2021/04/08 03:48:05;;;;;;;16.80;13.70;;;;;;;1.91;68.94;99815.27;115842;1199;102926;-83
2021/04/08 03:50:33;;;;;;;19.10;13.20;;;;;;;1.93;68.40;99820.52;115749;1199;101962;-82
2021/04/08 03:53:00;;;;;;;21.00;14.93;;;;;;;1.92;68.56;99813.51;115771;1199;103021;-80
2021/04/08 03:55:27;;;;;;;17.10;14.63;;;;;;;1.91;68.42;99819.66;115745;1199;103114;-82
2021/04/08 03:57:54;;;;;;;18.10;16.07;;;;;;;1.97;68.23;99817.02;115764;1200;103067;-83
2021/04/08 04:00:23;;;;;;;21.43;14.07;;;;;;;1.99;68.13;99823.16;115719;1199;101704;-83
2021/04/08 04:02:50;;;;;;;15.70;14.00;;;;;;;2.03;68.87;99816.13;116040;1199;102095;-83
2021/04/08 04:05:17;;;;;;;15.45;12.73;;;;;;;2.07;68.20;99823.16;115730;1199;103108;-83
2021/04/08 04:07:51;;;;;;;17.13;15.40;;;;;;;2.04;68.29;99823.13;115480;1199;103155;-82
2021/04/08 04:10:21;;;;;;;17.50;13.90;;;;;;;2.06;68.50;99824.02;115501;1200;103712;-82
2021/04/08 04:12:50;;;;;;;18.43;16.23;;;;;;;2.06;68.69;99827.51;115612;1199;103232;-82
2021/04/08 04:15:18;;;;;;;17.40;13.88;;;;;;;2.08;68.83;99823.14;115598;1199;103139;-82
2021/04/08 04:17:45;;;;;;;17.40;14.83;;;;;;;2.10;68.82;99826.63;115868;1200;103114;-80
2021/04/08 04:20:12;;;;;;;18.60;15.08;;;;;;;2.08;68.44;99827.50;115693;1199;103107;-81
2021/04/08 04:22:40;;;;;;;21.77;16.57;;;;;;;2.13;68.79;99831.00;115759;1199;103085;-82
2021/04/08 04:25:09;;;;;;;21.87;17.93;;;;;;;2.13;68.81;99826.64;115766;1199;103231;-81
2021/04/08 04:27:36;;;;;;;23.50;17.15;;;;;;;2.15;68.65;99826.64;115779;1197;103133;-81
2021/04/08 04:30:05;;;;;;;17.35;15.60;;;;;;;2.19;68.82;99828.38;115878;1199;103094;-82
2021/04/08 04:32:32;;;;;;;19.05;15.08;;;;;;;2.20;68.35;99831.88;115696;1198;103181;-82
2021/04/08 04:34:59;;;;;;;25.70;17.63;;;;;;;2.22;68.78;99832.76;115650;1199;102816;-82
2021/04/08 04:37:26;;;;;;;21.35;16.10;;;;;;;2.23;68.89;99835.38;115835;1200;103110;-82
2021/04/08 04:39:52;;;;;;;24.10;17.05;;;;;;;2.24;68.96;99837.14;115831;1198;103210;-81
2021/04/08 04:42:19;;;;;;;18.33;16.40;;;;;;;2.30;68.64;99836.24;115988;1198;103316;-82
2021/04/08 04:44:46;;;;;;;22.73;16.48;;;;;;;2.33;69.27;99836.23;115571;1199;103169;-83
2021/04/08 04:47:13;;;;;;;23.55;16.88;;;;;;;2.39;68.65;99841.48;115576;1199;103082;-82
2021/04/08 04:49:40;;;;;;;20.07;15.63;;;;;;;2.43;68.07;99845.84;115796;1199;103079;-82
2021/04/08 04:52:07;;;;;;;18.13;16.33;;;;;;;2.42;68.37;99844.09;115845;1199;103094;-82
2021/04/08 04:54:34;;;;;;;19.10;17.08;;;;;;;2.42;68.41;99843.23;115812;1197;103043;-82
2021/04/08 04:57:03;;;;;;;21.00;15.90;;;;;;;2.46;68.44;99847.59;115698;1199;103143;-83
2021/04/08 04:59:44;;;;;;;21.57;17.77;;;;;;;2.45;68.83;99841.48;115589;1202;103085;-83
2021/04/08 05:02:25;;;;;;;23.20;17.73;;;;;;;2.47;68.78;99844.96;115406;1202;103194;-83
2021/04/08 05:05:07;;;;;;;30.97;22.43;;;;;;;2.46;69.08;99847.59;115824;1199;102371;-82
2021/04/08 05:07:33;;;;;;;23.55;20.80;;;;;;;2.46;69.05;99850.23;115781;1199;103002;-82
2021/04/08 05:10:00;;;;;;;44.63;33.18;;;;;;;2.54;69.20;99842.33;115645;1199;103063;-83
2021/04/08 05:12:27;;;;;;;25.23;20.98;;;;;;;2.55;69.33;99851.97;115692;1199;103113;-83
2021/04/08 05:15:08;;;;;;;24.87;22.17;;;;;;;2.57;68.42;99847.57;115561;1201;103059;-82
2021/04/08 05:17:35;;;;;;;25.93;19.73;;;;;;;2.60;68.94;99852.81;115670;1202;103082;-81
2021/04/08 05:20:04;;;;;;;21.00;18.27;;;;;;;2.59;69.32;99859.83;115651;1202;103302;-80
2021/04/08 05:22:31;;;;;;;22.90;20.07;;;;;;;2.65;69.50;99853.67;115606;1201;103374;-81
2021/04/08 05:24:58;;;;;;;25.40;22.70;;;;;;;2.62;68.76;99856.33;115317;1202;103043;-82
2021/04/08 05:27:25;;;;;;;30.35;24.10;;;;;;;2.68;69.31;99864.20;115437;1203;101732;-81
2021/04/08 05:29:52;;;;;;;33.30;25.63;;;;;;;2.72;70.04;99859.79;115285;1203;102235;-81
2021/04/08 05:32:18;;;;;;;27.80;24.17;;;;;;;2.67;69.09;99868.56;115447;1201;103270;-81
2021/04/08 05:34:45;;;;;;;31.75;25.45;;;;;;;2.70;69.72;99875.58;115517;1201;103069;-80
2021/04/08 05:37:27;;;;;;;26.15;22.75;;;;;;;2.70;70.01;99875.58;115450;1202;103308;-82
2021/04/08 05:40:10;;;;;;;28.73;25.20;;;;;;;2.72;70.10;99871.20;115277;1202;103088;-83
2021/04/08 05:42:37;;;;;;;26.83;21.90;;;;;;;2.68;70.95;99878.22;115199;1202;103302;-85
2021/04/08 05:45:04;;;;;;;23.70;20.20;;;;;;;2.67;70.91;99888.73;115329;1203;103065;-82
2021/04/08 05:47:31;;;;;;;25.68;19.93;;;;;;;2.72;71.60;99886.98;115478;1203;103031;-82
2021/04/08 05:49:58;;;;;;;21.65;19.73;;;;;;;2.76;71.72;99883.45;115415;1201;103155;-82
2021/04/08 05:52:25;;;;;;;22.85;20.28;;;;;;;2.76;71.26;99888.72;115524;1199;103184;-82
2021/04/08 05:54:52;;;;;;;20.25;17.90;;;;;;;2.78;72.11;99892.20;115758;1198;103107;-82
2021/04/08 05:57:20;;;;;;;24.28;19.85;;;;;;;2.82;71.61;99891.31;115789;1198;103194;-83
2021/04/08 05:59:47;;;;;;;23.90;20.33;;;;;;;2.86;72.39;99896.58;115778;1198;102268;-81
2021/04/08 06:02:13;;;;;;;28.70;21.90;;;;;;;2.86;72.65;99902.70;115709;1199;103071;-81
2021/04/08 06:04:55;;;;;;;27.27;21.20;;;;;;;2.83;73.00;99910.61;115781;1198;103516;-83
2021/04/08 06:07:22;;;;;;;24.95;20.05;;;;;;;2.86;73.36;99914.98;115777;1198;103018;-82
2021/04/08 06:09:48;;;;;;;26.53;23.03;;;;;;;2.87;73.04;99914.12;115933;1198;103091;-82
2021/04/08 06:12:15;;;;;;;27.90;24.87;;;;;;;2.94;72.83;99913.20;116040;1198;103017;-82
2021/04/08 06:14:45;;;;;;;32.50;26.55;;;;;;;2.97;73.15;99914.08;115814;1199;103143;-83
2021/04/08 06:17:29;;;;;;;31.65;25.55;;;;;;;3.01;73.43;99915.82;115793;1200;103018;-83
2021/04/08 06:19:56;;;;;;;31.43;24.97;;;;;;;3.00;73.33;99921.09;115856;1199;103002;-83
2021/04/08 06:22:23;;;;;;;26.07;23.37;;;;;;;2.98;72.69;99915.81;115684;1199;103002;-83
2021/04/08 06:24:50;;;;;;;24.85;22.35;;;;;;;3.00;73.11;99919.33;115719;1198;103209;-83
2021/04/08 06:27:16;;;;;;;26.63;20.58;;;;;;;3.00;72.83;99935.11;115689;1199;103545;-82
2021/04/08 06:29:43;;;;;;;25.90;21.45;;;;;;;3.01;73.16;99930.70;115671;1199;103095;-83
2021/04/08 06:32:10;;;;;;;27.90;20.70;;;;;;;2.99;73.64;99941.23;115623;1199;103235;-83
2021/04/08 06:34:37;;;;;;;25.93;20.75;;;;;;;3.04;73.53;99935.98;115729;1199;103139;-82
2021/04/08 06:37:04;;;;;;;27.33;21.67;;;;;;;3.04;72.98;99937.72;115504;1199;103056;-82
2021/04/08 06:39:34;;;;;;;23.53;18.87;;;;;;;3.03;73.71;99938.63;115579;1199;103027;-84
2021/04/08 06:42:01;;;;;;;24.97;19.63;;;;;;;3.10;73.42;99940.34;115920;1199;103053;-82
2021/04/08 06:44:29;;;;;;;23.77;18.63;;;;;;;3.13;73.41;99949.11;115727;1199;102931;-82
2021/04/08 06:47:03;;;;;;;23.20;20.45;;;;;;;3.20;73.17;99946.44;115780;1198;103225;-83
2021/04/08 06:49:43;;;;;;;23.43;20.88;;;;;;;3.19;73.10;99961.36;115713;1198;103124;-83
2021/04/08 06:52:11;;;;;;;17.50;15.70;;;;;;;3.23;73.20;99955.20;115981;1198;103243;-83
2021/04/08 06:54:38;;;;;;;20.52;18.35;;;;;;;3.32;72.74;99955.17;115677;1197;103081;-82
2021/04/08 06:57:06;;;;;;;20.68;18.58;;;;;;;3.40;73.07;99965.67;115903;1199;101782;-82
2021/04/08 06:59:33;;;;;;;18.33;16.63;;;;;;;3.39;73.37;99970.95;115221;1199;101950;-82
2021/04/08 07:02:00;;;;;;;20.53;17.47;;;;;;;3.33;73.46;99971.83;115599;1200;102702;-82
2021/04/08 07:04:27;;;;;;;20.23;16.83;;;;;;;3.31;73.49;99982.36;115669;1199;102103;-82
2021/04/08 07:06:54;;;;;;;21.03;18.73;;;;;;;3.40;72.94;99981.47;115810;1199;103458;-83
2021/04/08 07:09:22;;;;;;;21.13;18.63;;;;;;;3.44;73.08;99988.47;115874;1199;103450;-83
2021/04/08 07:11:50;;;;;;;22.40;19.63;;;;;;;3.42;72.85;99982.32;115804;1198;102000;-83
2021/04/08 07:14:18;;;;;;;23.43;18.50;;;;;;;3.45;73.48;99989.33;115775;1200;103121;-82
2021/04/08 07:16:45;;;;;;;20.33;18.20;;;;;;;3.57;73.29;99998.94;115773;1199;103038;-83
2021/04/08 07:19:12;;;;;;;20.30;18.30;;;;;;;3.68;73.20;99999.78;115688;1199;103021;-82
2021/04/08 07:21:41;;;;;;;21.43;18.63;;;;;;;3.70;73.08;100003.27;115922;1199;103066;-83
2021/04/08 07:24:15;;;;;;;23.40;20.13;;;;;;;3.72;73.05;100005.89;115896;1199;103430;-82
2021/04/08 07:27:03;;;;;;;21.18;18.90;;;;;;;3.71;72.68;100012.93;115578;1199;102029;-83
2021/04/08 07:29:39;;;;;;;22.35;18.65;;;;;;;3.77;72.48;100012.02;115715;1200;103161;-83
2021/04/08 07:32:12;;;;;;;23.23;19.37;;;;;;;3.84;73.35;100019.02;115874;1199;103092;-83
2021/04/08 07:34:47;;;;;;;21.37;19.20;;;;;;;3.89;72.58;100018.98;115769;1199;103567;-83
2021/04/08 07:37:15;;;;;;;20.95;18.73;;;;;;;3.95;73.00;100016.33;115790;1199;103159;-82
2021/04/08 07:39:58;;;;;;;19.23;17.23;;;;;;;4.09;73.09;100019.77;115896;1198;103146;-81
2021/04/08 07:42:28;;;;;;;20.60;18.47;;;;;;;4.20;72.18;100027.60;115899;1199;103330;-82
2021/04/08 07:45:06;;;;;;;18.78;16.85;;;;;;;4.26;72.86;100027.55;115906;1199;101531;-82
2021/04/08 07:47:37;;;;;;;27.47;20.87;;;;;;;4.38;71.94;100031.86;115731;1199;103108;-81
2021/04/08 07:50:04;;;;;;;20.10;16.53;;;;;;;4.54;72.25;100031.77;115729;1199;104311;-81
2021/04/08 07:52:50;;;;;;;19.50;17.37;;;;;;;4.70;71.69;100030.74;115642;1199;103011;-82
2021/04/08 07:55:23;;;;;;;20.10;16.10;;;;;;;4.85;71.38;100027.09;115731;1199;103065;-82
2021/04/08 07:58:09;;;;;;;19.10;17.03;;;;;;;5.03;71.12;100039.26;115770;1199;103098;-82
2021/04/08 08:00:53;;;;;;;16.37;14.40;;;;;;;5.18;69.59;100052.32;115825;1199;103018;-82
2021/04/08 08:03:23;;;;;;;20.17;16.10;;;;;;;5.30;70.25;100048.66;115861;1199;103041;-82
2021/04/08 08:05:52;;;;;;;27.20;21.27;;;;;;;5.37;69.75;100049.45;115983;1199;103257;-82
2021/04/08 08:08:21;;;;;;;17.70;15.90;;;;;;;5.30;68.92;100056.57;115743;1197;103062;-83
2021/04/08 08:11:02;;;;;;;18.80;14.63;;;;;;;5.20;69.05;100062.86;115496;1199;103091;-82
2021/04/08 08:13:31;;;;;;;14.35;12.95;;;;;;;5.05;69.40;100066.49;115437;1199;103044;-82
2021/04/08 08:16:00;;;;;;;15.63;14.00;;;;;;;4.97;70.61;100076.25;115527;1199;103164;-82
2021/04/08 08:18:32;;;;;;;11.60;10.38;;;;;;;4.82;69.98;100083.39;115517;1199;103277;-83
2021/04/08 08:21:20;;;;;;;11.93;10.73;;;;;;;4.71;70.44;100085.26;115789;1198;103017;-83
2021/04/08 08:23:55;;;;;;;14.10;12.57;;;;;;;4.69;70.40;100087.91;115476;1200;103012;-83
2021/04/08 08:26:37;;;;;;;17.30;15.38;;;;;;;4.69;71.14;100097.56;115515;1199;102993;-83
2021/04/08 08:29:16;;;;;;;12.60;11.30;;;;;;;4.72;72.09;100088.76;115300;1200;103207;-83
2021/04/08 08:31:49;;;;;;;16.60;14.80;;;;;;;4.69;72.02;100092.30;115634;1199;102983;-84
2021/04/08 08:34:29;;;;;;;17.00;14.40;;;;;;;4.62;72.60;100095.88;115640;1199;103050;-82
2021/04/08 08:37:05;;;;;;;16.48;13.85;;;;;;;4.57;72.47;100100.30;115570;1198;103007;-82
2021/04/08 08:39:54;;;;;;;15.70;14.15;;;;;;;4.57;72.87;100109.11;115682;1198;103268;-83
2021/04/08 08:42:25;;;;;;;17.50;15.77;;;;;;;4.61;73.38;100108.20;115748;1200;103245;-83
2021/04/08 08:44:53;;;;;;;15.05;13.45;;;;;;;4.61;73.60;100112.58;115447;1199;103216;-83
2021/04/08 08:47:24;;;;;;;17.33;15.13;;;;;;;4.60;73.09;100118.73;115543;1198;103101;-82
2021/04/08 08:49:59;;;;;;;16.70;15.00;;;;;;;4.48;72.67;100128.48;115545;1198;103162;-84
2021/04/08 08:52:28;;;;;;;12.90;11.23;;;;;;;4.46;72.07;100124.10;115374;1199;103137;-82
2021/04/08 08:55:15;;;;;;;12.50;11.30;;;;;;;4.45;72.42;100138.16;115836;1199;103071;-83
2021/04/08 08:57:46;;;;;;;13.80;12.40;;;;;;;4.40;73.03;100142.58;115922;1198;101680;-84
2021/04/08 09:00:28;;;;;;;11.23;10.05;;;;;;;4.32;72.85;100146.15;115792;1199;103157;-83
2021/04/08 09:03:01;;;;;;;11.55;10.30;;;;;;;4.29;72.67;100142.64;115594;1199;103094;-82
2021/04/08 09:05:29;;;;;;;11.73;10.58;;;;;;;4.27;72.01;100154.97;115585;1200;102073;-82
2021/04/08 09:08:13;;;;;;;12.13;10.93;;;;;;;4.25;72.42;100157.62;115558;1199;103063;-83
2021/04/08 09:10:52;;;;;;;10.75;9.68;;;;;;;4.19;73.28;100158.50;115711;1199;102864;-82
2021/04/08 09:13:19;;;;;;;10.20;9.23;;;;;;;4.17;73.03;100162.91;115769;1199;103069;-82
2021/04/08 09:15:46;;;;;;;11.47;10.37;;;;;;;4.28;73.00;100161.97;115527;1199;103047;-82
2021/04/08 09:18:13;;;;;;;13.70;12.35;;;;;;;4.33;73.81;100171.63;115929;1199;103258;-84
2021/04/08 09:20:40;;;;;;;11.37;9.73;;;;;;;4.29;73.87;100179.55;115811;1199;103164;-83
2021/04/08 09:23:12;;;;;;;11.20;8.95;;;;;;;4.17;73.26;100188.38;115526;1198;103533;-82
2021/04/08 09:25:46;;;;;;;8.73;7.97;;;;;;;4.09;72.72;100188.42;115591;1198;102541;-82
2021/04/08 09:28:39;;;;;;;9.00;8.13;;;;;;;4.04;72.45;100187.56;115653;1199;103197;-82
2021/04/08 09:31:28;;;;;;;9.33;8.53;;;;;;;4.03;72.41;100187.57;115378;1198;102962;-81
2021/04/08 09:33:56;;;;;;;10.33;9.30;;;;;;;4.09;72.34;100188.42;115655;1198;103044;-82
2021/04/08 09:36:24;;;;;;;9.03;8.23;;;;;;;4.16;72.68;100192.78;115734;1199;103267;-82
2021/04/08 09:38:52;;;;;;;8.43;7.60;;;;;;;4.23;72.53;100198.91;115943;1199;103015;-82
2021/04/08 09:42:01;;;;;;;10.67;8.60;;;;;;;4.21;72.40;100202.43;115723;1199;103142;-83
2021/04/08 09:44:29;;;;;;;10.53;8.00;;;;;;;4.12;72.76;100206.86;115811;1199;103102;-83
2021/04/08 09:47:01;;;;;;;8.23;7.28;;;;;;;3.93;72.06;100211.31;115738;1200;103088;-82
2021/04/08 09:49:41;;;;;;;7.90;7.10;;;;;;;3.93;72.54;100213.94;115799;1198;101850;-82
2021/04/08 09:52:09;;;;;;;9.33;7.28;;;;;;;3.88;72.71;100218.34;115562;1199;103194;-81
2021/04/08 09:54:46;;;;;;;11.83;7.88;;;;;;;3.80;72.30;100209.58;115543;1199;103037;-80
2021/04/08 09:57:35;;;;;;;10.47;7.70;;;;;;;3.71;72.73;100218.36;115788;1199;103123;-80
2021/04/08 10:00:06;;;;;;;7.83;7.13;;;;;;;3.71;72.09;100223.63;115856;1199;102854;-81
2021/04/08 10:02:32;;;;;;;8.20;7.40;;;;;;;3.63;72.27;100235.93;115758;1200;103172;-82
2021/04/08 10:05:11;;;;;;;8.13;7.43;;;;;;;3.59;72.95;100232.41;115896;1198;102513;-82
2021/04/08 10:07:52;;;;;;;8.80;7.68;;;;;;;3.50;72.71;100241.17;115735;1198;103202;-83
2021/04/08 10:10:25;;;;;;;7.37;6.67;;;;;;;3.44;74.04;100246.46;115608;1199;103110;-82
2021/04/08 10:12:52;;;;;;;9.33;7.57;;;;;;;3.41;73.51;100235.94;115845;1199;102020;-82
2021/04/08 10:15:34;;;;;;;9.25;8.30;;;;;;;3.38;73.64;100251.70;115625;1199;103050;-82
2021/04/08 10:18:02;;;;;;;8.10;7.28;;;;;;;3.39;73.79;100256.11;115736;1199;103226;-82
2021/04/08 10:20:43;;;;;;;8.08;7.48;;;;;;;3.33;74.18;100254.36;115642;1199;102274;-81
2021/04/08 10:23:13;;;;;;;8.00;7.17;;;;;;;3.38;74.27;100256.11;115485;1199;103124;-82
2021/04/08 10:25:40;;;;;;;11.27;8.23;;;;;;;3.50;74.39;100256.97;115588;1199;102999;-82
2021/04/08 10:28:08;;;;;;;7.68;6.88;;;;;;;3.69;73.97;100259.61;115548;1198;103782;-82
2021/04/08 10:30:41;;;;;;;9.50;8.60;;;;;;;4.13;73.79;100261.33;115561;1200;103002;-82
2021/04/08 10:33:18;;;;;;;10.67;7.87;;;;;;;4.80;73.97;100264.59;115535;1198;102032;-82
2021/04/08 10:35:45;;;;;;;12.25;8.10;;;;;;;6.85;70.30;100259.27;115637;1200;103082;-82
2021/04/08 10:38:13;;;;;;;8.37;7.57;;;;;;;7.85;67.92;100258.61;115742;1199;103066;-82
2021/04/08 10:40:50;;;;;;;9.60;8.50;;;;;;;8.99;63.55;100258.20;116072;1199;103233;-83
2021/04/08 10:43:18;;;;;;;10.75;7.45;;;;;;;8.68;63.36;100265.03;115944;1198;101419;-82
2021/04/08 10:45:56;;;;;;;9.58;7.90;;;;;;;8.58;63.97;100260.81;115565;1199;103082;-83
2021/04/08 10:48:25;;;;;;;8.20;7.35;;;;;;;8.21;64.83;100264.18;115814;1198;103085;-82
2021/04/08 10:50:53;;;;;;;9.83;8.87;;;;;;;7.95;65.30;100264.64;115725;1198;103130;-82
2021/04/08 10:53:26;;;;;;;9.50;8.15;;;;;;;7.63;66.13;100264.28;115572;1199;103033;-83
2021/04/08 10:55:54;;;;;;;9.83;8.27;;;;;;;7.40;66.55;100269.96;115672;1200;103114;-84
2021/04/08 10:58:35;;;;;;;11.10;9.93;;;;;;;7.18;67.49;100266.75;115634;1198;103214;-82
2021/04/08 11:01:05;;;;;;;9.97;9.00;;;;;;;6.91;67.64;100281.27;115799;1200;103072;-83
2021/04/08 11:03:46;;;;;;;10.33;9.23;;;;;;;7.05;68.29;100284.60;115663;1200;103178;-82
2021/04/08 11:06:22;;;;;;;12.03;9.93;;;;;;;7.07;68.10;100280.14;115751;1199;103110;-84
2021/04/08 11:08:49;;;;;;;10.90;7.90;;;;;;;6.83;67.11;100289.30;115913;1199;103085;-81
2021/04/08 11:11:25;;;;;;;6.10;5.60;;;;;;;6.82;67.00;100291.08;115825;1199;102995;-82
2021/04/08 11:13:52;;;;;;;8.40;6.50;;;;;;;6.83;66.90;100290.16;115670;1199;102993;-83
2021/04/08 11:16:18;;;;;;;6.95;6.25;;;;;;;6.85;67.16;100295.42;115765;1200;103513;-81
2021/04/08 11:18:46;;;;;;;9.90;7.35;;;;;;;6.93;67.32;100295.34;115736;1200;103156;-83
2021/04/08 11:21:28;;;;;;;7.45;6.43;;;;;;;7.02;66.78;100289.91;115473;1201;103175;-82
2021/04/08 11:23:56;;;;;;;6.70;6.20;;;;;;;7.01;66.44;100296.10;115555;1200;103008;-82
2021/04/08 11:26:22;;;;;;;7.67;6.90;;;;;;;7.06;66.41;100283.68;115791;1199;103048;-82
2021/04/08 11:28:59;;;;;;;7.65;7.00;;;;;;;7.07;64.96;100289.88;115536;1198;103329;-82